Time;durP1;ratioP1;P1;durP2;ratioP2;P2;SDS_P1;SDS_P2;PMS_P1;PMS_P2;Temp;Humidity;BMP_temperature;BMP_pressure;BME280_temperature;BME280_humidity;BME280_pressure;Samples;Min_cycle;Max_cycle;Signal;HPM_P1;HPM_P2
2023/04/27 00:01:14;;;;;;;2.53;1.00;;;5.00;99.90;;;;;;5033941;28;20025;-46
2023/04/27 00:03:40;;;;;;;3.17;1.67;;;5.00;99.90;;;;;;5033785;28;20100;-46
2023/04/27 00:06:09;;;;;;;1.83;0.90;;;5.00;99.90;;;;;;5033906;28;20056;-46
2023/04/27 00:08:35;;;;;;;1.73;1.20;;;5.00;99.90;;;;;;5033943;28;20442;-45
2023/04/27 00:11:00;;;;;;;2.50;0.87;;;5.00;99.90;;;;;;5033950;28;20053;-45
2023/04/27 00:13:26;;;;;;;1.53;0.70;;;4.90;99.90;;;;;;5033650;28;20626;-46
2023/04/27 00:15:52;;;;;;;1.57;1.17;;;4.80;99.90;;;;;;5033847;28;20098;-47
2023/04/27 00:18:18;;;;;;;1.23;0.60;;;4.80;99.90;;;;;;5033489;28;20025;-50
2023/04/27 00:20:44;;;;;;;1.40;0.77;;;4.80;99.90;;;;;;5033436;28;20026;-47
2023/04/27 00:23:10;;;;;;;0.73;0.70;;;4.60;99.90;;;;;;5033692;28;20048;-46
2023/04/27 00:25:36;;;;;;;1.33;0.80;;;4.60;99.90;;;;;;5033380;28;20030;-47
2023/04/27 00:28:01;;;;;;;1.37;0.77;;;4.50;99.90;;;;;;5033541;28;20029;-49
2023/04/27 00:30:27;;;;;;;2.77;1.03;;;4.50;99.90;;;;;;5032080;28;20041;-47
2023/04/27 00:32:53;;;;;;;2.20;1.13;;;4.50;99.90;;;;;;5033462;28;20120;-47
2023/04/27 00:35:19;;;;;;;1.50;0.90;;;4.60;99.90;;;;;;5031772;28;20136;-47
2023/04/27 00:37:45;;;;;;;2.33;0.97;;;4.40;99.90;;;;;;5033354;28;20033;-48
2023/04/27 00:40:11;;;;;;;1.83;0.80;;;4.40;99.90;;;;;;5033315;28;20033;-46
2023/04/27 00:42:37;;;;;;;3.73;0.80;;;4.30;99.90;;;;;;5031946;28;20116;-47
2023/04/27 00:45:04;;;;;;;1.70;0.70;;;4.20;99.90;;;;;;5033117;28;20033;-48
2023/04/27 00:47:31;;;;;;;3.63;1.13;;;4.20;99.90;;;;;;5031519;28;20029;-48
2023/04/27 00:49:57;;;;;;;1.70;1.00;;;4.20;99.90;;;;;;5031674;28;20026;-46
2023/04/27 00:52:25;;;;;;;1.10;0.63;;;4.20;99.90;;;;;;5031760;28;20056;-47
2023/04/27 00:54:51;;;;;;;3.33;0.77;;;4.10;99.90;;;;;;5031680;28;20061;-50
2023/04/27 00:57:19;;;;;;;1.87;0.90;;;4.00;99.90;;;;;;5031577;28;20079;-46
2023/04/27 00:59:45;;;;;;;1.57;0.80;;;3.80;99.90;;;;;;5031802;28;20033;-47
2023/04/27 01:02:12;;;;;;;1.80;0.70;;;3.90;99.90;;;;;;5031466;28;20041;-51
2023/04/27 01:04:38;;;;;;;1.17;0.80;;;3.90;99.90;;;;;;5031333;28;20033;-48
2023/04/27 01:07:04;;;;;;;1.67;1.07;;;3.90;99.90;;;;;;5032636;28;20080;-48
2023/04/27 01:09:30;;;;;;;2.27;0.70;;;3.80;99.90;;;;;;5031530;28;20068;-47
2023/04/27 01:11:57;;;;;;;1.90;0.97;;;3.80;99.90;;;;;;5032709;28;20049;-46
2023/04/27 01:14:23;;;;;;;1.13;0.60;;;3.90;99.90;;;;;;5032554;28;20061;-49
2023/04/27 01:16:51;;;;;;;3.20;1.50;;;3.80;99.90;;;;;;5031043;28;20529;-46
2023/04/27 01:19:16;;;;;;;3.20;1.37;;;3.80;99.90;;;;;;5032538;28;20037;-48
2023/04/27 01:21:42;;;;;;;1.60;0.93;;;3.80;99.90;;;;;;5032470;28;20106;-48
2023/04/27 01:24:08;;;;;;;2.53;0.87;;;3.80;99.90;;;;;;5032381;28;20143;-47
2023/04/27 01:26:36;;;;;;;3.87;1.00;;;3.80;99.90;;;;;;5030900;28;20033;-49
2023/04/27 01:29:02;;;;;;;5.73;1.60;;;3.90;99.90;;;;;;5032522;28;20029;-47
2023/04/27 01:31:28;;;;;;;3.20;1.40;;;3.90;99.90;;;;;;5032281;28;20037;-47
2023/04/27 01:33:54;;;;;;;3.63;0.90;;;3.90;99.90;;;;;;5032127;28;20038;-48
2023/04/27 01:36:20;;;;;;;2.07;1.07;;;3.80;99.90;;;;;;5030808;28;20029;-47
2023/04/27 01:38:47;;;;;;;1.67;1.10;;;3.70;99.90;;;;;;5030952;28;20044;-46
2023/04/27 01:41:13;;;;;;;2.33;1.17;;;3.70;99.90;;;;;;5044322;22;20037;-52
2023/04/27 01:43:42;;;;;;;1.90;1.73;;;3.70;99.90;;;;;;5029258;28;20452;-54
2023/04/27 01:46:10;;;;;;;2.37;1.17;;;3.70;99.90;;;;;;5030536;28;20099;-54
2023/04/27 01:48:36;;;;;;;1.83;1.00;;;3.70;99.90;;;;;;5031618;28;20029;-53
2023/04/27 01:51:03;;;;;;;1.17;0.60;;;3.70;99.90;;;;;;5013824;28;20077;-55
2023/04/27 01:53:29;;;;;;;1.77;1.17;;;3.70;99.90;;;;;;5031534;28;20033;-54
2023/04/27 01:55:55;;;;;;;2.23;1.80;;;3.70;99.90;;;;;;5031851;28;20034;-53
2023/04/27 01:58:21;;;;;;;2.30;0.80;;;3.70;99.90;;;;;;5031297;28;20026;-54
2023/04/27 02:00:47;;;;;;;2.20;0.93;;;3.70;99.90;;;;;;5013872;28;20033;-49
2023/04/27 02:03:13;;;;;;;3.67;1.20;;;3.70;99.90;;;;;;5031846;28;20083;-50
2023/04/27 02:05:38;;;;;;;2.33;1.17;;;3.70;99.90;;;;;;5013941;28;20580;-49
2023/04/27 02:08:05;;;;;;;2.57;0.97;;;3.70;99.90;;;;;;5013954;28;20030;-53
2023/04/27 02:10:30;;;;;;;2.93;0.93;;;3.80;99.90;;;;;;5013992;28;20371;-50
2023/04/27 02:12:56;;;;;;;3.00;0.93;;;3.80;99.90;;;;;;5013948;28;20033;-48
2023/04/27 02:15:22;;;;;;;2.57;1.03;;;3.80;99.90;;;;;;5013776;28;20029;-49
2023/04/27 02:17:48;;;;;;;1.50;1.07;;;3.80;99.90;;;;;;5013723;28;20459;-50
2023/04/27 02:20:14;;;;;;;1.60;0.83;;;3.80;99.90;;;;;;5013880;28;20033;-49
2023/04/27 02:22:43;;;;;;;1.00;0.87;;;3.80;99.90;;;;;;5031701;28;20056;-53
2023/04/27 02:25:10;;;;;;;2.80;1.42;;;3.80;99.90;;;;;;5031539;28;20033;-48
2023/04/27 02:27:37;;;;;;;1.67;1.13;;;3.80;99.90;;;;;;5013743;28;20541;-51
2023/04/27 02:30:07;;;;;;;2.23;1.20;;;3.70;99.90;;;;;;5013726;28;20368;-49
2023/04/27 02:32:33;;;;;;;2.00;1.07;;;3.70;99.90;;;;;;5013783;28;20030;-52
2023/04/27 02:35:00;;;;;;;3.10;2.03;;;3.70;99.90;;;;;;5013666;28;20033;-52
2023/04/27 02:37:27;;;;;;;2.97;1.43;;;3.60;99.90;;;;;;5013858;28;20060;-51
2023/04/27 02:39:55;;;;;;;3.00;1.30;;;3.60;99.90;;;;;;5013626;28;20056;-50
2023/04/27 02:42:21;;;;;;;3.23;1.20;;;3.60;99.90;;;;;;5031339;28;20470;-51
2023/04/27 02:44:47;;;;;;;0.73;0.67;;;3.60;99.90;;;;;;5013513;28;20024;-50
2023/04/27 02:47:13;;;;;;;3.23;1.50;;;3.60;99.90;;;;;;5013426;28;20079;-53
2023/04/27 02:49:38;;;;;;;2.73;1.27;;;3.60;99.90;;;;;;5031297;28;20470;-51
2023/04/27 02:52:05;;;;;;;1.40;1.10;;;3.60;99.90;;;;;;5031205;28;20095;-49
2023/04/27 02:54:31;;;;;;;2.47;0.90;;;3.70;99.90;;;;;;5013288;28;20037;-51
2023/04/27 02:56:57;;;;;;;2.13;0.93;;;3.60;99.90;;;;;;5013260;28;20030;-51
2023/04/27 02:59:23;;;;;;;2.40;1.20;;;3.60;99.90;;;;;;5013420;28;20041;-53
2023/04/27 03:01:49;;;;;;;2.83;1.20;;;3.50;99.90;;;;;;5030974;28;20068;-52
2023/04/27 03:04:15;;;;;;;3.77;1.10;;;3.50;99.90;;;;;;5030864;28;20371;-50
2023/04/27 03:06:41;;;;;;;3.47;1.33;;;3.50;99.90;;;;;;5030819;28;20083;-50
2023/04/27 03:09:09;;;;;;;1.40;1.10;;;3.40;99.90;;;;;;5030985;28;20429;-52
2023/04/27 03:11:35;;;;;;;1.70;0.50;;;3.40;99.90;;;;;;5029994;28;20033;-51
2023/04/27 03:14:01;;;;;;;1.60;0.93;;;3.40;99.90;;;;;;5030924;28;20548;-49
2023/04/27 03:16:27;;;;;;;1.93;1.07;;;3.50;99.90;;;;;;5030695;28;20132;-51
2023/04/27 03:18:53;;;;;;;1.17;0.97;;;3.50;99.90;;;;;;5013192;28;20029;-49
2023/04/27 03:21:19;;;;;;;1.97;0.93;;;3.50;99.90;;;;;;5012971;28;20045;-48
2023/04/27 03:23:48;;;;;;;2.88;1.38;;;3.50;99.90;;;;;;5012992;28;20083;-52
2023/04/27 03:26:15;;;;;;;3.47;1.20;;;3.50;99.90;;;;;;5013106;28;20082;-50
2023/04/27 03:28:41;;;;;;;1.27;0.90;;;3.50;99.90;;;;;;5012523;28;20451;-53
2023/04/27 03:31:11;;;;;;;1.23;1.07;;;3.40;99.90;;;;;;5013013;28;20033;-50
2023/04/27 03:33:38;;;;;;;2.03;1.07;;;3.40;99.90;;;;;;5030690;28;20030;-47
2023/04/27 03:36:05;;;;;;;3.07;1.10;;;3.40;99.90;;;;;;5030796;28;20533;-49
2023/04/27 03:38:32;;;;;;;3.70;1.60;;;3.50;99.90;;;;;;5030420;28;20493;-49
2023/04/27 03:40:58;;;;;;;1.60;0.90;;;3.50;99.90;;;;;;5030671;28;20589;-51
2023/04/27 03:43:24;;;;;;;2.27;1.30;;;3.50;99.90;;;;;;5013121;28;20128;-51
2023/04/27 03:45:50;;;;;;;1.77;0.97;;;3.60;99.90;;;;;;5012847;28;20061;-51
2023/04/27 03:48:17;;;;;;;1.87;0.83;;;3.60;99.90;;;;;;4996381;28;20028;-54
2023/04/27 03:50:43;;;;;;;2.30;0.80;;;3.60;99.90;;;;;;5030510;28;20034;-51
2023/04/27 03:53:10;;;;;;;0.93;0.57;;;3.60;99.90;;;;;;5030664;28;20064;-53
2023/04/27 03:55:43;;;;;;;1.93;0.87;;;3.60;99.90;;;;;;5012886;28;20612;-52
2023/04/27 03:58:10;;;;;;;1.73;1.07;;;3.60;99.90;;;;;;5012157;28;20030;-49
2023/04/27 04:00:41;;;;;;;1.57;0.83;;;3.70;99.90;;;;;;5012496;28;20116;-51
2023/04/27 04:03:07;;;;;;;1.20;0.73;;;3.70;99.90;;;;;;5030381;28;20584;-54
2023/04/27 04:05:33;;;;;;;3.70;0.90;;;3.70;99.90;;;;;;5012473;28;20497;-49
2023/04/27 04:07:59;;;;;;;1.57;0.50;;;3.70;99.90;;;;;;5030442;28;20029;-50
2023/04/27 04:10:26;;;;;;;1.93;1.50;;;3.70;99.90;;;;;;5012738;28;20034;-52
2023/04/27 04:12:52;;;;;;;2.83;1.33;;;3.70;99.90;;;;;;5012415;28;20033;-48
2023/04/27 04:15:19;;;;;;;2.97;1.40;;;3.70;99.90;;;;;;5012595;28;20141;-51
2023/04/27 04:17:46;;;;;;;3.60;1.67;;;3.70;99.90;;;;;;5012362;28;20041;-52
2023/04/27 04:20:12;;;;;;;1.50;0.87;;;3.70;99.90;;;;;;4996290;28;20030;-51
2023/04/27 04:22:38;;;;;;;0.73;0.60;;;3.70;99.90;;;;;;5032109;28;20036;-49
2023/04/27 04:25:06;;;;;;;2.43;1.13;;;3.70;99.90;;;;;;5016142;28;20033;-52
2023/04/27 04:27:32;;;;;;;1.63;0.80;;;3.70;99.90;;;;;;5016099;28;20030;-47
2023/04/27 04:29:59;;;;;;;1.43;0.77;;;3.70;99.90;;;;;;5016063;28;20034;-51
2023/04/27 04:32:30;;;;;;;1.23;0.77;;;3.80;99.90;;;;;;5015674;28;20451;-48
2023/04/27 04:34:56;;;;;;;2.53;1.30;;;3.80;99.90;;;;;;5032661;28;20480;-47
2023/04/27 04:37:23;;;;;;;2.83;1.50;;;3.80;99.90;;;;;;5015849;28;20486;-49
2023/04/27 04:39:49;;;;;;;3.80;1.17;;;3.80;99.90;;;;;;5015978;28;20029;-51
2023/04/27 04:42:15;;;;;;;0.77;0.60;;;3.80;99.90;;;;;;5033425;28;20025;-49
2023/04/27 04:44:42;;;;;;;1.27;0.63;;;3.90;99.90;;;;;;5015644;28;20049;-47
2023/04/27 04:47:09;;;;;;;3.20;0.90;;;3.90;99.90;;;;;;5015718;28;20060;-49
2023/04/27 04:49:35;;;;;;;2.63;1.30;;;3.90;99.90;;;;;;5015786;28;20133;-50
2023/04/27 04:52:02;;;;;;;0.73;0.67;;;3.90;99.90;;;;;;5015625;28;20053;-51
2023/04/27 04:54:29;;;;;;;2.10;1.10;;;4.00;99.90;;;;;;5015641;28;20165;-52
2023/04/27 04:56:54;;;;;;;1.90;1.50;;;4.10;99.90;;;;;;5015362;28;20230;-53
2023/04/27 04:59:20;;;;;;;2.40;1.43;;;4.20;99.90;;;;;;5033179;28;20061;-54
2023/04/27 05:01:46;;;;;;;2.40;1.07;;;4.20;99.90;;;;;;5015444;28;20056;-52
2023/04/27 05:04:12;;;;;;;3.43;1.33;;;4.20;99.90;;;;;;5032994;28;20389;-55
2023/04/27 05:06:37;;;;;;;4.37;1.73;;;4.30;99.90;;;;;;5033028;28;20109;-53
2023/04/27 05:09:05;;;;;;;1.57;1.20;;;4.30;99.90;;;;;;5033204;28;20449;-53
2023/04/27 05:11:31;;;;;;;1.83;1.00;;;4.40;99.90;;;;;;5033063;28;20124;-54
2023/04/27 05:13:57;;;;;;;1.70;1.20;;;4.50;99.90;;;;;;5032750;28;20398;-54
2023/04/27 05:16:22;;;;;;;3.63;1.43;;;4.50;99.90;;;;;;5032779;28;20033;-54
2023/04/27 05:18:48;;;;;;;2.70;1.33;;;4.60;99.90;;;;;;5032916;28;20029;-55
2023/04/27 05:21:15;;;;;;;1.83;1.07;;;4.60;99.90;;;;;;5032921;28;20036;-53
2023/04/27 05:23:40;;;;;;;3.23;1.33;;;4.80;99.90;;;;;;5033103;28;20029;-53
2023/04/27 05:26:14;;;;;;;1.20;0.73;;;4.90;99.90;;;;;;5032758;28;20036;-51
2023/04/27 05:28:40;;;;;;;3.73;1.43;;;5.10;99.90;;;;;;5032413;28;20171;-51
2023/04/27 05:31:06;;;;;;;2.47;1.20;;;5.20;99.90;;;;;;5032622;28;20029;-54
2023/04/27 05:33:32;;;;;;;4.30;1.77;;;5.30;99.90;;;;;;5013728;28;20037;-51
2023/04/27 05:35:57;;;;;;;3.27;1.20;;;5.60;99.90;;;;;;5032717;28;20033;-52
2023/04/27 05:38:23;;;;;;;2.60;1.43;;;5.70;99.90;;;;;;5032483;28;20040;-50
2023/04/27 05:40:57;;;;;;;3.93;1.83;;;5.90;99.90;;;;;;5032339;28;20041;-52
2023/04/27 05:43:24;;;;;;;3.53;1.57;;;6.00;99.90;;;;;;5032109;28;20124;-51
2023/04/27 05:45:50;;;;;;;3.23;1.10;;;6.10;99.90;;;;;;5032329;28;20072;-51
2023/04/27 05:48:16;;;;;;;3.13;1.80;;;6.30;99.90;;;;;;5032334;28;20049;-54
2023/04/27 05:50:41;;;;;;;2.10;1.43;;;6.30;99.90;;;;;;5032252;28;20478;-53
2023/04/27 05:53:07;;;;;;;3.23;0.93;;;6.40;99.90;;;;;;5032313;28;20072;-53
2023/04/27 05:55:33;;;;;;;2.47;1.33;;;6.50;99.90;;;;;;5031939;28;20077;-54
2023/04/27 05:58:00;;;;;;;1.83;1.00;;;6.50;99.90;;;;;;5031993;28;20100;-51
2023/04/27 06:00:25;;;;;;;2.83;1.20;;;6.50;99.90;;;;;;5032325;28;20033;-49
2023/04/27 06:02:51;;;;;;;1.33;0.80;;;6.50;99.90;;;;;;5032110;28;20371;-48
2023/04/27 06:05:17;;;;;;;3.17;1.37;;;6.60;99.90;;;;;;5031865;28;20478;-53
2023/04/27 06:07:43;;;;;;;1.57;1.00;;;6.70;99.90;;;;;;5031777;28;20028;-55
2023/04/27 06:10:11;;;;;;;2.43;1.30;;;6.90;99.90;;;;;;5031769;28;20056;-53
2023/04/27 06:12:37;;;;;;;0.73;0.57;;;7.20;99.90;;;;;;5031970;28;20079;-50
2023/04/27 06:15:07;;;;;;;1.07;0.73;;;7.50;99.90;;;;;;5031758;28;20025;-51
2023/04/27 06:17:36;;;;;;;1.70;0.87;;;7.70;99.90;;;;;;5031790;28;20029;-52
2023/04/27 06:20:06;;;;;;;1.65;0.90;;;7.90;99.90;;;;;;5031644;28;20072;-54
2023/04/27 06:22:32;;;;;;;2.60;1.20;;;8.00;99.90;;;;;;5031685;28;20395;-50
2023/04/27 06:24:58;;;;;;;1.73;1.00;;;8.10;99.90;;;;;;5031763;28;20033;-54
2023/04/27 06:27:24;;;;;;;3.57;1.07;;;8.00;99.90;;;;;;5031499;28;20520;-53
2023/04/27 06:29:50;;;;;;;1.80;0.93;;;7.90;99.90;;;;;;5031522;28;20037;-50
2023/04/27 06:32:16;;;;;;;1.83;0.80;;;7.90;99.90;;;;;;5031522;28;20112;-51
2023/04/27 06:34:42;;;;;;;2.07;1.30;;;7.90;99.90;;;;;;5031293;28;20033;-50
2023/04/27 06:37:08;;;;;;;2.17;1.20;;;8.00;99.90;;;;;;5031242;28;20091;-52
2023/04/27 06:39:34;;;;;;;2.23;1.43;;;8.20;99.90;;;;;;5031395;28;20033;-51
2023/04/27 06:41:59;;;;;;;1.47;0.80;;;8.50;99.90;;;;;;5031065;28;20031;-51
2023/04/27 06:44:25;;;;;;;2.17;0.93;;;8.50;99.90;;;;;;5031143;28;20025;-55
2023/04/27 06:46:51;;;;;;;1.63;0.90;;;8.50;99.90;;;;;;5030991;28;20064;-55
2023/04/27 06:49:17;;;;;;;1.90;0.93;;;8.60;99.90;;;;;;5031241;28;20045;-54
2023/04/27 06:51:43;;;;;;;1.80;0.97;;;8.80;99.90;;;;;;5030953;28;20116;-50
2023/04/27 06:54:08;;;;;;;2.53;1.10;;;8.80;99.90;;;;;;5031007;28;20029;-54
2023/04/27 06:56:34;;;;;;;1.87;0.73;;;8.90;99.90;;;;;;5030954;28;20041;-51
2023/04/27 06:59:00;;;;;;;1.93;0.90;;;9.20;99.90;;;;;;5031142;28;20036;-56
2023/04/27 07:01:25;;;;;;;2.77;1.00;;;9.30;99.90;;;;;;5030900;28;20395;-57
2023/04/27 07:03:51;;;;;;;3.83;0.93;;;9.60;99.90;;;;;;5030912;28;20033;-55
2023/04/27 07:06:17;;;;;;;0.87;0.63;;;9.70;99.90;;;;;;5030908;28;20041;-58
2023/04/27 07:08:43;;;;;;;1.53;0.90;;;9.80;99.90;;;;;;5024522;28;20966;-55
2023/04/27 07:11:08;;;;;;;1.73;0.73;;;9.80;99.90;;;;;;5027585;28;20033;-55
2023/04/27 07:13:34;;;;;;;2.00;0.80;;;10.00;99.90;;;;;;5027143;28;20121;-57
2023/04/27 07:16:00;;;;;;;2.40;0.80;;;10.00;99.90;;;;;;5027947;28;20087;-57
2023/04/27 07:18:29;;;;;;;1.97;1.10;;;10.10;99.80;;;;;;5026640;28;20064;-58
2023/04/27 07:20:56;;;;;;;1.58;1.08;;;10.20;99.90;;;;;;5027088;28;20046;-58
2023/04/27 07:23:22;;;;;;;2.40;0.97;;;10.20;99.80;;;;;;5027281;28;20049;-56
2023/04/27 07:25:48;;;;;;;5.10;1.37;;;10.30;99.90;;;;;;5027380;28;20171;-59
2023/04/27 07:28:14;;;;;;;2.33;1.10;;;10.50;99.90;;;;;;5026802;28;20169;-57
2023/04/27 07:30:41;;;;;;;2.83;1.40;;;10.60;98.90;;;;;;5027621;28;20106;-58
2023/04/27 07:33:08;;;;;;;1.83;1.23;;;10.60;99.90;;;;;;5027279;28;20370;-58
2023/04/27 07:35:35;;;;;;;2.53;1.17;;;10.70;99.40;;;;;;5027221;28;20042;-57
2023/04/27 07:38:01;;;;;;;1.60;1.30;;;10.90;98.40;;;;;;5026726;28;20029;-59
2023/04/27 07:40:28;;;;;;;2.73;1.23;;;11.10;98.30;;;;;;5026942;28;20045;-56
2023/04/27 07:42:54;;;;;;;1.53;0.97;;;11.30;99.80;;;;;;5028209;23;20442;-47
2023/04/27 07:45:21;;;;;;;2.90;1.20;;;11.40;98.00;;;;;;4992281;28;20080;-48
2023/04/27 07:47:47;;;;;;;2.40;1.23;;;11.30;97.90;;;;;;5010780;28;20479;-47
2023/04/27 07:50:16;;;;;;;2.67;1.10;;;11.40;97.40;;;;;;5010828;28;20061;-48
2023/04/27 07:52:42;;;;;;;2.33;1.25;;;11.70;97.30;;;;;;5010417;28;20475;-48
2023/04/27 07:55:08;;;;;;;2.70;1.10;;;11.80;97.30;;;;;;5020905;28;20053;-48
2023/04/27 07:57:34;;;;;;;1.95;1.20;;;11.90;96.20;;;;;;5032070;28;20482;-49
2023/04/27 08:00:01;;;;;;;3.58;1.42;;;12.00;96.30;;;;;;5034450;28;20128;-48
2023/04/27 08:02:30;;;;;;;1.52;0.82;;;12.00;95.80;;;;;;5034319;28;20026;-49
2023/04/27 08:04:56;;;;;;;;;;;12.00;94.60;;;;;;5035010;28;20030;-46
2023/04/27 08:07:22;;;;;;;2.37;1.00;;;11.70;94.50;;;;;;5034038;28;20349;-48
2023/04/27 08:09:51;;;;;;;1.67;1.23;;;11.60;96.70;;;;;;5034437;28;20470;-48
2023/04/27 08:12:16;;;;;;;1.70;1.30;;;11.70;95.20;;;;;;5034113;28;20494;-48
2023/04/27 08:14:42;;;;;;;2.05;0.77;;;11.90;94.70;;;;;;5034076;28;20064;-51
2023/04/27 08:17:08;;;;;;;2.70;1.08;;;11.90;95.80;;;;;;5033781;28;20119;-49
2023/04/27 08:19:33;;;;;;;1.90;1.15;;;11.90;94.60;;;;;;5034174;28;20022;-50
2023/04/27 08:22:00;;;;;;;3.28;1.20;;;12.00;95.20;;;;;;5033921;28;20501;-46
2023/04/27 08:24:25;;;;;;;1.77;1.20;;;12.20;94.40;;;;;;5033834;28;20558;-47
2023/04/27 08:26:51;;;;;;;1.63;0.98;;;12.40;95.20;;;;;;5033838;28;20108;-48
2023/04/27 08:29:17;;;;;;;1.73;1.13;;;12.40;94.40;;;;;;5033794;28;20386;-48
2023/04/27 08:31:42;;;;;;;1.45;0.98;;;12.10;93.70;;;;;;5033830;28;20037;-49
2023/04/27 08:34:08;;;;;;;2.10;1.10;;;11.90;92.90;;;;;;5033514;28;20037;-47
2023/04/27 08:36:34;;;;;;;2.13;0.93;;;11.90;92.40;;;;;;5033532;28;20033;-49
2023/04/27 08:39:00;;;;;;;1.63;1.00;;;11.80;91.50;;;;;;5033650;28;20117;-48
2023/04/27 08:41:25;;;;;;;2.50;1.00;;;11.70;92.30;;;;;;5033635;28;20501;-50
2023/04/27 08:43:52;;;;;;;1.33;0.70;;;11.80;91.50;;;;;;5033325;28;20049;-50
2023/04/27 08:46:20;;;;;;;1.10;0.60;;;11.70;92.00;;;;;;5033407;28;20036;-48
2023/04/27 08:48:48;;;;;;;1.57;0.80;;;11.80;92.80;;;;;;5033523;28;20040;-47
2023/04/27 08:51:15;;;;;;;1.75;1.13;;;11.70;91.40;;;;;;5033569;28;20030;-53
2023/04/27 08:53:48;;;;;;;1.58;0.73;;;11.90;92.10;;;;;;5033097;28;20036;-50
2023/04/27 08:56:14;;;;;;;2.03;1.00;;;12.10;93.40;;;;;;5033429;28;20052;-47
2023/04/27 08:58:40;;;;;;;0.87;0.73;;;12.20;92.40;;;;;;5033305;28;20029;-46
2023/04/27 09:01:06;;;;;;;1.58;0.90;;;12.10;89.70;;;;;;5017103;28;20034;-47
2023/04/27 09:03:33;;;;;;;2.15;0.90;;;12.20;89.70;;;;;;5013337;28;20245;-47
2023/04/27 09:06:00;;;;;;;2.42;1.00;;;12.50;91.40;;;;;;5013373;28;20032;-49
2023/04/27 09:08:26;;;;;;;1.27;0.70;;;12.70;91.50;;;;;;5013218;28;20363;-46
2023/04/27 09:10:53;;;;;;;1.75;0.80;;;12.90;92.00;;;;;;5013429;28;20041;-46
2023/04/27 09:13:19;;;;;;;2.13;1.30;;;13.10;90.60;;;;;;5013193;28;20025;-47
2023/04/27 09:15:50;;;;;;;1.33;0.73;;;13.30;88.10;;;;;;5013295;28;20041;-46
2023/04/27 09:18:21;;;;;;;1.52;0.73;;;13.30;83.80;;;;;;5013082;28;20034;-46
2023/04/27 09:20:49;;;;;;;1.95;0.82;;;13.20;85.30;;;;;;5013057;28;20554;-47
2023/04/27 09:23:29;;;;;;;1.35;1.08;;;12.90;85.70;;;;;;5013041;28;20483;-48
2023/04/27 09:25:55;;;;;;;0.60;0.60;;;12.80;83.00;;;;;;5013063;28;20034;-46
2023/04/27 09:28:23;;;;;;;1.50;0.60;;;12.80;81.40;;;;;;5013127;28;20034;-51
2023/04/27 09:30:54;;;;;;;1.27;0.70;;;12.90;84.40;;;;;;5013069;28;20125;-47
2023/04/27 09:33:31;;;;;;;1.25;0.70;;;13.00;87.40;;;;;;5012896;28;20038;-47
2023/04/27 09:35:59;;;;;;;0.57;0.47;;;12.80;83.30;;;;;;5013082;28;20033;-47
2023/04/27 09:38:25;;;;;;;1.50;0.95;;;13.00;79.40;;;;;;5012510;28;20045;-46
2023/04/27 09:40:52;;;;;;;1.83;0.75;;;13.00;77.50;;;;;;5012688;28;20025;-48
2023/04/27 09:43:18;;;;;;;0.93;0.60;;;13.20;76.00;;;;;;5012640;28;20406;-46
2023/04/27 09:45:43;;;;;;;1.60;0.70;;;13.20;77.40;;;;;;5012782;28;20033;-45
2023/04/27 09:48:11;;;;;;;1.05;0.80;;;13.20;78.50;;;;;;5012323;28;20104;-47
2023/04/27 09:50:39;;;;;;;1.50;0.70;;;13.40;77.00;;;;;;5012578;28;20036;-47
2023/04/27 09:53:17;;;;;;;1.45;0.70;;;13.50;76.20;;;;;;5012402;28;20036;-49
2023/04/27 09:55:53;;;;;;;1.10;0.70;;;13.70;77.40;;;;;;5012980;28;20037;-47
2023/04/27 09:58:37;;;;;;;1.52;0.93;;;14.10;79.40;;;;;;5012485;28;20153;-47
2023/04/27 10:01:37;;;;;;;2.75;0.80;;;14.50;73.30;;;;;;5012507;28;20053;-47
2023/04/27 10:04:47;;;;;;;2.42;1.30;;;14.50;77.40;;;;;;5012146;28;20026;-51
2023/04/27 10:07:14;;;;;;;1.20;0.70;;;14.90;73.40;;;;;;5012165;28;20091;-51
2023/04/27 10:09:41;;;;;;;1.60;0.73;;;15.10;71.70;;;;;;5012188;28;20029;-50
2023/04/27 10:12:21;;;;;;;1.83;0.80;;;15.40;68.50;;;;;;5012235;28;20034;-51
2023/04/27 10:14:47;;;;;;;2.72;0.95;;;15.40;69.00;;;;;;4994499;28;20083;-48
2023/04/27 10:17:13;;;;;;;2.97;0.98;;;15.00;72.60;;;;;;5011960;28;20033;-49
2023/04/27 10:19:39;;;;;;;1.48;1.00;;;14.80;72.90;;;;;;5011570;28;20125;-47
2023/04/27 10:22:07;;;;;;;2.38;1.20;;;15.00;71.80;;;;;;5011841;28;20030;-45
2023/04/27 10:24:47;;;;;;;1.55;1.00;;;15.10;70.00;;;;;;5012076;28;20033;-45
2023/04/27 10:27:18;;;;;;;1.88;1.10;;;15.00;69.40;;;;;;5011782;28;20034;-45
2023/04/27 10:29:45;;;;;;;1.50;1.00;;;15.00;70.00;;;;;;5011912;28;20479;-45
2023/04/27 10:32:17;;;;;;;1.33;0.90;;;15.20;68.80;;;;;;5011783;28;20030;-45
2023/04/27 10:34:46;;;;;;;1.85;0.90;;;15.30;70.40;;;;;;5012011;28;20037;-45
2023/04/27 10:37:13;;;;;;;1.65;0.90;;;15.50;69.30;;;;;;5011643;28;20112;-45
2023/04/27 10:39:40;;;;;;;1.90;1.30;;;15.60;67.50;;;;;;5011760;28;20026;-47
2023/04/27 10:42:07;;;;;;;3.30;1.35;;;16.00;66.20;;;;;;5011338;28;20034;-45
2023/04/27 10:44:34;;;;;;;1.73;1.00;;;16.40;61.40;;;;;;5011992;28;20037;-47
2023/04/27 10:47:18;;;;;;;2.25;0.95;;;16.30;62.70;;;;;;5011540;28;20069;-45
2023/04/27 10:49:44;;;;;;;3.20;1.30;;;16.40;66.30;;;;;;5011557;28;20022;-48
2023/04/27 10:52:10;;;;;;;1.13;0.95;;;16.60;64.20;;;;;;5011575;28;20235;-45
2023/04/27 10:54:38;;;;;;;1.73;1.08;;;16.50;66.10;;;;;;5011390;28;20029;-51
2023/04/27 10:57:11;;;;;;;2.05;0.82;;;16.60;62.00;;;;;;5011412;28;20399;-48
2023/04/27 10:59:54;;;;;;;2.30;0.85;;;16.20;65.30;;;;;;5011538;28;20112;-46
2023/04/27 11:02:28;;;;;;;1.90;1.10;;;16.40;63.50;;;;;;5011415;28;20124;-46
2023/04/27 11:04:55;;;;;;;3.55;1.10;;;16.60;62.40;;;;;;5011283;28;20466;-46
2023/04/27 11:07:28;;;;;;;1.88;0.98;;;15.90;63.40;;;;;;5011128;28;20093;-48
2023/04/27 11:09:54;;;;;;;2.00;0.80;;;16.10;65.60;;;;;;5011464;28;20026;-47
2023/04/27 11:12:20;;;;;;;1.92;1.15;;;15.90;65.70;;;;;;5011146;28;20394;-46
2023/04/27 11:14:46;;;;;;;2.33;1.10;;;15.80;64.20;;;;;;5011441;28;20080;-47
2023/04/27 11:17:12;;;;;;;2.88;1.13;;;15.80;64.20;;;;;;5011304;28;20070;-46
2023/04/27 11:19:46;;;;;;;1.52;1.08;;;15.60;62.40;;;;;;5011267;28;20037;-46
2023/04/27 11:22:16;;;;;;;3.17;1.10;;;15.80;61.80;;;;;;5011023;28;20068;-46
2023/04/27 11:24:50;;;;;;;1.63;1.02;;;15.80;60.00;;;;;;5011469;28;20057;-46
2023/04/27 11:27:16;;;;;;;1.80;1.02;;;15.60;61.00;;;;;;5011015;28;20065;-46
2023/04/27 11:29:42;;;;;;;2.30;1.30;;;15.40;60.80;;;;;;5011098;28;20030;-46
2023/04/27 11:32:17;;;;;;;1.83;1.13;;;15.50;62.20;;;;;;5012053;28;20045;-46
2023/04/27 11:34:52;;;;;;;3.08;1.35;;;15.50;63.10;;;;;;5014992;28;20040;-46
2023/04/27 11:37:25;;;;;;;3.20;1.50;;;15.20;63.50;;;;;;5014884;28;20034;-49
2023/04/27 11:39:56;;;;;;;1.92;0.70;;;15.20;65.10;;;;;;5015084;28;20037;-46
2023/04/27 11:42:30;;;;;;;2.05;0.95;;;15.40;60.70;;;;;;5014867;28;20501;-48
2023/04/27 11:44:58;;;;;;;1.98;0.90;;;15.70;60.40;;;;;;5014718;28;20034;-49
2023/04/27 11:47:27;;;;;;;2.10;1.05;;;15.60;61.50;;;;;;5014674;28;20491;-51
2023/04/27 11:49:57;;;;;;;1.37;0.83;;;15.50;60.20;;;;;;5014637;28;20025;-49
2023/04/27 11:52:30;;;;;;;1.83;1.08;;;15.60;60.40;;;;;;5014662;28;20437;-47
2023/04/27 11:54:58;;;;;;;1.92;0.95;;;15.50;58.90;;;;;;5014349;28;20044;-51
2023/04/27 11:57:29;;;;;;;0.95;0.70;;;15.30;57.50;;;;;;5014320;28;20065;-47
2023/04/27 11:59:58;;;;;;;2.33;1.13;;;15.40;55.30;;;;;;5014474;28;20030;-49
2023/04/27 12:02:25;;;;;;;2.10;1.02;;;15.40;57.50;;;;;;5014193;28;20034;-47
2023/04/27 12:04:51;;;;;;;1.25;0.98;;;15.40;55.80;;;;;;5014099;28;20045;-48
2023/04/27 12:07:18;;;;;;;1.27;0.82;;;15.50;56.20;;;;;;5013991;28;20022;-47
2023/04/27 12:09:44;;;;;;;1.23;0.73;;;15.80;55.50;;;;;;5014382;28;20036;-50
2023/04/27 12:12:11;;;;;;;1.10;0.80;;;15.90;59.40;;;;;;5014121;28;20109;-50
2023/04/27 12:14:37;;;;;;;1.33;0.80;;;15.90;59.80;;;;;;5014368;28;20026;-49
2023/04/27 12:17:03;;;;;;;2.90;1.20;;;16.10;61.70;;;;;;5013917;28;20052;-48
2023/04/27 12:19:30;;;;;;;2.30;1.20;;;16.30;59.20;;;;;;5013908;28;20523;-49
2023/04/27 12:21:57;;;;;;;2.35;1.17;;;16.30;60.20;;;;;;5013968;28;20038;-48
2023/04/27 12:24:23;;;;;;;1.73;0.88;;;16.20;57.30;;;;;;5013592;28;20429;-49
2023/04/27 12:26:50;;;;;;;1.33;1.02;;;16.30;56.00;;;;;;5013701;28;20057;-47
2023/04/27 12:29:15;;;;;;;1.45;0.85;;;16.30;55.90;;;;;;4996347;28;20091;-51
2023/04/27 12:31:41;;;;;;;1.58;0.80;;;16.20;53.40;;;;;;5013623;28;20494;-48
2023/04/27 12:34:07;;;;;;;1.05;0.85;;;16.10;53.70;;;;;;5013474;28;20026;-47
2023/04/27 12:36:33;;;;;;;1.42;1.00;;;16.00;55.70;;;;;;5013348;28;20075;-47
2023/04/27 12:39:12;;;;;;;1.88;1.10;;;15.80;56.80;;;;;;5013617;28;20046;-49
2023/04/27 12:41:38;;;;;;;1.42;0.90;;;16.00;59.70;;;;;;5013257;28;20030;-47
2023/04/27 12:44:03;;;;;;;4.00;1.23;;;16.00;58.60;;;;;;5012847;28;20034;-52
2023/04/27 12:46:29;;;;;;;1.25;1.00;;;15.80;58.20;;;;;;4995558;28;20073;-48
2023/04/27 12:48:55;;;;;;;2.65;1.52;;;15.90;55.40;;;;;;5013366;28;20033;-49
2023/04/27 12:51:22;;;;;;;1.48;0.90;;;16.20;56.20;;;;;;5013500;28;20073;-51
2023/04/27 12:53:48;;;;;;;2.05;0.95;;;16.30;56.50;;;;;;5013544;28;20052;-48